Overseas Skopelos — V7SU9 — position and weather

sailwx.info

Track history (hours):
 
Tides and Currents Weather Stations Pressure Air Temp Water Temp Dewpoint Dewpoint Depression Visibility Wind Speed Wind Dir Waves Ship Positions

Overseas Skopelos

Last reported at 2014-Dec-07 15:33 UTC. Time now 2014-Dec-20 15:48 UTC.
Position N 01°16' E 104°10'.
Warning: this ship's position is 13 days out of date.

Length 183 m; draft 8.5 m.

Type: Tanker. MMSI: 538003726.

Date/timePositionNaut miles runAvg speedWind from/ knotsBaromVisibWave heightAir tempDewpointWater temp
2014-Dec-07 15:33N 01°16' E 104°10'10 9.8
2014-Dec-07 14:32N 01°14' E 103°60'  
2014-Dec-05 08:23N 01°15' E 103°44'5 5.6
2014-Dec-05 07:26N 01°13' E 103°49'0 0.0
2014-Dec-05 06:14N 01°13' E 103°49'0 0.0
2014-Dec-05 02:29N 01°13' E 103°49'0 0.1
2014-Dec-05 01:32N 01°13' E 103°49'0 0.1
2014-Dec-04 23:32N 01°14' E 103°49'0 0.0
2014-Dec-04 22:32N 01°13' E 103°49'0 0.0
2014-Dec-04 21:32N 01°13' E 103°49'0 0.0
2014-Dec-04 20:29N 01°13' E 103°49'0 0.1
2014-Dec-04 19:23N 01°13' E 103°49'0 0.0
2014-Dec-04 18:29N 01°13' E 103°49'0 0.0
2014-Dec-04 17:26N 01°13' E 103°49'0 0.0
2014-Dec-04 16:32N 01°13' E 103°49'0 0.1
2014-Dec-04 14:32N 01°13' E 103°49'0 0.0
2014-Dec-04 11:24N 01°13' E 103°49'5 5.7
2014-Dec-04 10:33N 01°13' E 103°53'9 8.8
2014-Dec-04 09:33N 01°16' E 104°02'1211.9
2014-Dec-04 08:32N 01°17' E 104°14'  
2014-Nov-30 11:23N 01°16' E 104°13'1113.7
2014-Nov-30 10:33N 01°15' E 104°02'1313.1
2014-Nov-30 09:33N 01°10' E 103°50'10 3.4
2014-Nov-30 06:33N 01°13' E 103°40'13 0.5
2014-Nov-29 02:28N 01°12' E 103°53'1110.9
2014-Nov-29 01:28N 01°16' E 104°03'  
Track history (hours):
 
Tides and Currents Weather Stations Pressure Air Temp Water Temp Dewpoint Dewpoint Depression Visibility Wind Speed Wind Dir Waves Ship Positions

Overseas Skopelos

Last reported at 2014-Dec-07 15:33 UTC. Time now 2014-Dec-20 15:48 UTC.
Position N 01°16' E 104°10'.
Warning: this ship's position is 13 days out of date.

Length 183 m; draft 8.5 m.

Type: Tanker. MMSI: 538003726.

Date/timePositionNaut miles runAvg speedWind from/ knotsBaromVisibWave heightAir tempDewpointWater temp
2014-Dec-07 15:33N 01°16' E 104°10'10 9.8
2014-Dec-07 14:32N 01°14' E 103°60'  
2014-Dec-05 08:23N 01°15' E 103°44'5 5.6
2014-Dec-05 07:26N 01°13' E 103°49'0 0.0
2014-Dec-05 06:14N 01°13' E 103°49'0 0.0
2014-Dec-05 02:29N 01°13' E 103°49'0 0.1
2014-Dec-05 01:32N 01°13' E 103°49'0 0.1
2014-Dec-04 23:32N 01°14' E 103°49'0 0.0
2014-Dec-04 22:32N 01°13' E 103°49'0 0.0
2014-Dec-04 21:32N 01°13' E 103°49'0 0.0
2014-Dec-04 20:29N 01°13' E 103°49'0 0.1
2014-Dec-04 19:23N 01°13' E 103°49'0 0.0
2014-Dec-04 18:29N 01°13' E 103°49'0 0.0
2014-Dec-04 17:26N 01°13' E 103°49'0 0.0
2014-Dec-04 16:32N 01°13' E 103°49'0 0.1
2014-Dec-04 14:32N 01°13' E 103°49'0 0.0
2014-Dec-04 11:24N 01°13' E 103°49'5 5.7
2014-Dec-04 10:33N 01°13' E 103°53'9 8.8
2014-Dec-04 09:33N 01°16' E 104°02'1211.9
2014-Dec-04 08:32N 01°17' E 104°14'  
2014-Nov-30 11:23N 01°16' E 104°13'1113.7
2014-Nov-30 10:33N 01°15' E 104°02'1313.1
2014-Nov-30 09:33N 01°10' E 103°50'10 3.4
2014-Nov-30 06:33N 01°13' E 103°40'13 0.5
2014-Nov-29 02:28N 01°12' E 103°53'1110.9
2014-Nov-29 01:28N 01°16' E 104°03'  

Dump ship's entire track history